Latest Coastal Weather Observations for Lake Macquarie - Cooranbong

IDN60701

Issued at 10:21 pm EST Friday 20 September 2019 (issued every 10 minutes, with the page automatically refreshed every 10 minutes)

About coastal observations | Map of coastal stations | Coastal observations for NSW | Marine services | Other Formats
Station Details ID: 061412 Name: LAKE MACQUARIE AWS Lat: -33.09 Lon: 151.46 Height: 6.0 m
Data from the previous 72 hours. | See also: Recent months at Lake Macquarie - Cooranbong
Date/Time
EST
Wind Sea
Height
m
Swell Vis
km
Cloud Weather Temp
°C
Press
hPa
Rain since
9am
mm
Dir  Spd
kts
Gust
kts
Height
m
Period
s
Dir
20/10:00pm CALM 0 0 - - - - - - - 14.7 1023.7 0.0
20/09:30pm CALM 0 0 - - - - - - - 14.9 1023.8 0.0
20/09:00pm CALM 0 0 - - - - - - - 15.7 1023.9 0.0
20/08:30pm CALM 0 2 - - - - - - - 16.7 1023.9 0.0
20/08:00pm NE 2 3 - - - - - - - 17.5 1023.9 0.0
20/07:30pm NE 2 4 - - - - - - - 17.7 1023.9 0.0
20/07:00pm ENE 3 8 - - - - - - - 18.1 1023.6 0.0
20/06:30pm E 2 5 - - - - - - - 18.2 1023.4 0.0
20/06:00pm ENE 3 5 - - - - - - - 18.5 1023.3 0.0
20/05:30pm E 4 8 - - - - - - - 19.0 1022.8 0.0
20/05:00pm E 4 7 - - - - - - - 19.8 1022.7 0.0
20/04:30pm ESE 6 11 - - - - - - - 20.3 1022.2 0.0
20/04:00pm ESE 6 10 - - - - - - - 20.3 1022.3 0.0
20/03:30pm ESE 6 10 - - - - - - - 21.2 1022.3 0.0
20/03:00pm E 9 15 - - - - - - - 21.0 1022.5 0.0
20/02:30pm E 8 15 - - - - - - - 21.6 1022.9 0.0
20/02:00pm E 8 15 - - - - - - - 21.3 1023.1 0.0
20/01:30pm E 10 15 - - - - - - - 21.8 1023.3 0.0
20/01:00pm E 10 15 - - - - - - - 21.0 1023.8 0.0
20/12:30pm E 10 15 - - - - - - - 20.9 1024.2 0.0
20/12:00pm ESE 7 13 - - - - - - - 20.5 1024.7 0.0
20/11:30am NE 4 7 - - - - - - - 22.0 1025.2 0.0
20/11:00am ENE 4 8 - - - - - - - 21.4 1025.8 0.0
20/10:30am NE 5 10 - - - - - - - 21.2 1026.3 0.0
20/10:00am NNE 6 11 - - - - - - - 20.3 1026.7 0.0
20/09:30am NNE 6 10 - - - - - - - 19.5 1026.8 0.0
20/09:00am NE 4 8 - - - - - - - 19.6 1027.2 2.2
20/08:30am NE 2 5 - - - - - - - 18.5 1027.2 2.2
20/08:00am CALM 0 0 - - - - - - - 17.1 1027.4 2.2
20/07:30am CALM 0 0 - - - - - - - 14.4 1027.2 2.2
20/07:00am WNW 2 3 - - - - - - - 12.1 1027.0 2.2
20/06:30am CALM 0 0 - - - - - - - 10.5 1026.9 2.2
20/06:00am CALM 0 0 - - - - - - - 10.4 1026.7 2.2
20/05:30am W 1 2 - - - - - - - 10.7 1026.6 2.2
20/05:00am CALM 0 0 - - - - - - - 10.5 1026.3 2.2
20/04:30am CALM 0 0 - - - - - - - 10.8 1026.0 2.2
20/04:00am CALM 0 0 - - - - - - - 11.0 1025.8 2.2
20/03:30am CALM 0 0 - - - - - - - 11.1 1025.8 2.2
20/03:00am CALM 0 0 - - - - - - - 11.4 1025.9 2.2
20/02:30am CALM 0 0 - - - - - - - 11.9 1026.1 2.2
20/02:00am CALM 0 0 - - - - - - - 11.9 1026.3 2.2
20/01:30am CALM 0 0 - - - - - - - 12.1 1026.4 2.2
20/01:00am CALM 0 0 - - - - - - - 12.5 1026.4 2.2
20/12:30am CALM 0 0 - - - - - - - 12.8 1026.6 2.2
20/12:00am CALM 0 0 - - - - - - - 13.0 1026.7 2.2
 
Date/Time
EST
Wind Sea
Height
m
Swell Vis
km
Cloud Weather Temp
°C
Press
hPa
Rain since
9am
mm
Dir  Spd
kts
Gust
kts
Height
m
Period
s
Dir
19/11:30pm CALM 0 0 - - - - - - - 13.3 1026.6 2.2
19/11:00pm CALM 0 0 - - - - - - - 13.8 1026.5 2.2
19/10:30pm CALM 0 0 - - - - - - - 14.1 1026.5 2.2
19/10:00pm CALM 0 0 - - - - - - - 14.9 1026.6 2.2
19/09:30pm N 1 3 - - - - - - - 16.1 1026.7 2.2
19/09:00pm NE 1 4 - - - - - - - 16.7 1026.6 2.2
19/08:30pm NE 2 5 - - - - - - - 17.1 1026.4 2.2
19/08:00pm CALM 0 1 - - - - - - - 17.5 1026.4 2.2
19/07:30pm ENE 2 3 - - - - - - - 17.8 1026.2 2.2
19/07:00pm ENE 4 8 - - - - - - - 18.1 1025.8 2.2
19/06:30pm ENE 3 5 - - - - - - - 18.2 1025.6 2.2
19/06:00pm E 2 5 - - - - - - - 18.4 1025.5 2.2
19/05:30pm E 4 7 - - - - - - - 18.8 1025.3 2.2
19/05:00pm E 4 8 - - - - - - - 18.9 1025.3 2.2
19/04:30pm E 5 9 - - - - - - - 19.3 1025.1 2.2
19/04:00pm E 6 11 - - - - - - - 19.4 1024.8 2.2
19/03:30pm E 8 13 - - - - - - - 19.5 1024.7 2.2
19/03:00pm E 7 13 - - - - - - - 19.5 1024.8 2.2
19/02:30pm E 5 9 - - - - - - - 19.4 1024.9 2.2
19/02:00pm E 6 11 - - - - - - - 19.5 1024.9 2.2
19/01:30pm E 6 11 - - - - - - - 19.4 1024.9 2.2
19/01:00pm E 9 16 - - - - - - - 19.9 1024.9 2.2
19/12:30pm E 4 7 - - - - - - - 18.6 1025.2 1.6
19/12:00pm ESE 3 5 - - - - - - Rain 18.8 1025.5 0.6
19/11:30am E 4 6 - - - - - - - 19.8 1025.9 0.0
19/11:00am ENE 2 4 - - - - - - - 20.0 1026.2 0.0
19/10:30am ESE 2 4 - - - - - - - 19.4 1026.4 0.0
19/10:00am ENE 1 3 - - - - - - - 18.9 1026.8 0.0
19/09:30am CALM 0 0 - - - - - - - 17.9 1027.1 0.0
19/09:00am E 1 1 - - - - - - - 17.5 1027.2 16.2
19/08:30am SE 1 3 - - - - - - - 16.4 1027.2 16.2
19/08:00am SSE 1 2 - - - - - - - 15.6 1027.2 16.2
19/07:30am SE 2 3 - - - - - - - 15.0 1027.0 16.2
19/07:00am CALM 0 0 - - - - - - - 14.5 1026.5 16.2
19/06:30am CALM 0 0 - - - - - - - 14.3 1026.6 16.2
19/06:00am CALM 0 0 - - - - - - Recent precip. 14.2 1026.1 16.2
19/05:30am CALM 0 0 - - - - - - - 14.1 1026.0 15.8
19/05:00am CALM 0 0 - - - - - - - 14.1 1025.5 14.8
19/04:30am CALM 0 0 - - - - - - - 14.1 1025.2 14.8
19/04:00am CALM 0 0 - - - - - - - 14.4 1024.9 14.8
19/03:30am CALM 0 0 - - - - - - - 14.5 1024.7 14.8
19/03:00am CALM 0 0 - - - - - - Recent precip. 14.7 1024.6 14.8
19/02:30am W 1 2 - - - - - - - 14.9 1024.7 14.8
19/02:00am NNE 1 2 - - - - - - - 14.8 1024.7 11.2
19/01:30am CALM 0 0 - - - - - - - 14.6 1024.6 11.2
19/01:00am CALM 0 0 - - - - - - - 14.5 1024.7 11.2
19/12:30am CALM 0 0 - - - - - - - 14.5 1024.9 11.2
19/12:00am CALM 0 0 - - - - - - Rain 14.5 1025.0 11.2
 
Date/Time
EST
Wind Sea
Height
m
Swell Vis
km
Cloud Weather Temp
°C
Press
hPa
Rain since
9am
mm
Dir  Spd
kts
Gust
kts
Height
m
Period
s
Dir
18/11:30pm CALM 0 0 - - - - - - - 14.6 1025.0 10.6
18/11:00pm CALM 0 0 - - - - - - - 15.1 1025.1 10.6
18/10:30pm CALM 0 0 - - - - - - - 15.2 1025.2 10.6
18/10:00pm CALM 0 0 - - - - - - - 15.1 1025.3 10.6
18/09:30pm CALM 0 0 - - - - - - - 15.4 1025.2 10.6
18/09:00pm CALM 0 0 - - - - - - - 15.5 1025.2 10.6
18/08:30pm CALM 0 1 - - - - - - - 15.5 1025.0 10.6
18/08:00pm CALM 0 0 - - - - - - - 15.4 1025.1 10.6
18/07:30pm CALM 0 0 - - - - - - - 15.5 1024.9 10.6
18/07:00pm CALM 0 0 - - - - - - - 16.2 1024.7 10.6
18/06:30pm CALM 0 0 - - - - - - - 16.6 1024.5 10.6
18/06:00pm CALM 0 2 - - - - - - - 17.3 1024.3 10.6
18/05:30pm SE 2 7 - - - - - - - 18.1 1024.2 10.6
18/05:00pm SE 2 4 - - - - - - - 18.3 1023.9 10.6
18/04:30pm ESE 5 10 - - - - - - - 18.6 1023.6 10.6
18/04:00pm ESE 6 10 - - - - - - - 18.8 1023.2 10.6
18/03:30pm SE 6 9 - - - - - - - 19.1 1023.0 10.6
18/03:00pm SE 5 8 - - - - - - - 19.5 1022.9 10.6
18/02:30pm ESE 9 14 - - - - - - - 19.2 1022.7 10.6
18/02:00pm ESE 10 19 - - - - - - - 19.5 1022.7 10.6
18/01:30pm ESE 9 16 - - - - - - - 19.0 1022.7 10.6
18/01:00pm ESE 8 12 - - - - - - - 19.1 1022.7 10.6
18/12:30pm SE 3 7 - - - - - - - 18.2 1022.9 10.6
18/12:00pm ENE 1 3 - - - - - - Recent precip. 17.9 1023.1 10.6
18/11:30am SSE 1 2 - - - - - - - 17.7 1023.4 10.6
18/11:00am S 2 4 - - - - - - - 16.7 1023.5 9.0
18/10:30am S 4 10 - - - - - - - 16.4 1023.7 8.0
18/10:00am SE 3 7 - - - - - - - 16.5 1023.9 2.0
18/09:30am SE 3 7 - - - - - - - 16.2 1023.9 1.4
18/09:00am ESE 4 7 - - - - - - Rain 16.3 1023.8 35.8
18/08:30am SSE 4 7 - - - - - - - 16.7 1023.4 32.6
18/08:00am S 4 9 - - - - - - - 16.7 1023.2 32.0
18/07:30am SSE 6 15 - - - - - - - 16.4 1022.9 32.0
18/07:00am SSE 5 10 - - - - - - - 16.0 1022.6 32.0
18/06:30am S 7 13 - - - - - - - 15.8 1022.2 32.0
18/06:00am SSE 6 11 - - - - - - Recent precip. 15.9 1021.8 31.6
18/05:30am SSE 5 10 - - - - - - - 15.7 1021.6 31.4
18/05:00am SSE 5 13 - - - - - - - 15.7 1021.4 31.2
18/04:30am SSE 5 13 - - - - - - - 15.5 1021.4 31.0
18/04:00am SSE 5 9 - - - - - - - 15.5 1021.2 30.4
18/03:30am S 5 11 - - - - - - - 15.7 1021.2 30.2
18/03:00am S 5 10 - - - - - - Recent precip. 15.1 1021.1 30.2
18/02:30am S 4 11 - - - - - - - 14.8 1021.0 30.2
18/02:00am S 5 13 - - - - - - - 14.6 1021.0 28.0
18/01:30am S 5 15 - - - - - - - 14.6 1021.0 26.8
18/01:00am S 7 13 - - - - - - - 14.6 1021.3 25.4
18/12:30am SSE 5 13 - - - - - - - 14.8 1021.5 24.8
18/12:00am S 6 12 - - - - - - Rain 14.6 1021.4 24.0
 
Date/Time
EST
Wind Sea
Height
m
Swell Vis
km
Cloud Weather Temp
°C
Press
hPa
Rain since
9am
mm
Dir  Spd
kts
Gust
kts
Height
m
Period
s
Dir
17/11:30pm SSE 7 15 - - - - - - - 14.4 1021.5 23.4
17/11:00pm SSE 7 15 - - - - - - - 14.5 1021.0 21.6
17/10:30pm S 9 16 - - - - - - - 14.4 1020.6 19.0

Other formats

Comma delimited format used in spreadsheet applications
http://www.bom.gov.au/fwo/IDN60701/IDN60701.95767.axf

JavaScript Object Notation format (JSON) in row-major order
http://www.bom.gov.au/fwo/IDN60701/IDN60701.95767.json

Data quality

Most of these data are generated automatically and are frequently updated. Quality checks on data are not normally performed. It is possible for incorrect values to appear. Refer to information at About Latest Weather Observations and please check the disclaimer before using these data.